createdAt,value
2019-01-11T01:25:55.040Z,-0.04
2019-01-11T01:28:28.563Z,-0.23
2019-01-11T01:31:01.247Z,-0.24
2019-01-11T01:33:34.246Z,-0.23
2019-01-11T01:36:07.377Z,-0.22
2019-01-11T01:38:40.914Z,-0.21
2019-01-11T01:41:14.241Z,-0.22
2019-01-11T01:43:47.721Z,-0.23
2019-01-11T01:46:20.922Z,-0.19
2019-01-11T01:48:54.597Z,-0.21
2019-01-11T01:51:28.304Z,-0.23
2019-01-11T01:54:01.305Z,-0.23
2019-01-11T01:56:34.715Z,-0.22
2019-01-11T01:59:08.134Z,-0.20
2019-01-11T02:01:41.551Z,-0.22
2019-01-11T02:04:14.916Z,-0.24
2019-01-11T02:06:48.125Z,-0.22
2019-01-11T02:09:21.071Z,-0.19
2019-01-11T02:11:54.405Z,-0.22
2019-01-11T02:14:27.395Z,-0.20
2019-01-11T02:17:00.766Z,-0.21
2019-01-11T02:19:34.165Z,-0.22
2019-01-11T02:22:06.869Z,-0.22
2019-01-11T02:24:39.885Z,-0.21
2019-01-11T02:27:13.032Z,-0.20
2019-01-11T02:29:46.472Z,-0.19
2019-01-11T02:32:19.107Z,-0.18
2019-01-11T02:34:52.199Z,-0.17
2019-01-11T02:37:25.581Z,-0.20
2019-01-11T02:39:58.984Z,-0.20
2019-01-11T02:42:31.623Z,-0.20
2019-01-11T02:45:05.371Z,-0.16
2019-01-11T02:47:38.342Z,-0.16
2019-01-11T02:50:11.863Z,-0.18
2019-01-11T02:52:45.069Z,-0.18
2019-01-11T02:55:17.831Z,-0.19
2019-01-11T02:57:51.405Z,-0.19
2019-01-11T03:00:24.559Z,-0.15
2019-01-11T03:02:58.487Z,-0.18
2019-01-11T03:05:31.708Z,-0.16
2019-01-11T03:08:07.616Z,-0.17
2019-01-11T03:10:40.972Z,-0.16
2019-01-11T03:13:13.975Z,-0.18
2019-01-11T03:15:46.893Z,-0.16
2019-01-11T03:18:20.685Z,-0.16
2019-01-11T03:20:53.818Z,-0.15
2019-01-11T03:23:27.248Z,-0.15
2019-01-11T03:26:01.262Z,-0.19
2019-01-11T03:28:33.893Z,-0.14
2019-01-11T03:31:15.719Z,-0.17
2019-01-11T03:33:48.377Z,-0.10
2019-01-11T03:36:21.300Z,-0.13
2019-01-11T03:38:53.906Z,-0.15
2019-01-11T03:41:27.298Z,-0.13
2019-01-11T03:44:00.102Z,-0.12
2019-01-11T03:46:33.105Z,-0.12
2019-01-11T03:49:06.145Z,-0.09
2019-01-11T03:51:39.100Z,-0.09
2019-01-11T03:54:12.514Z,-0.09
2019-01-11T03:56:45.175Z,-0.05
2019-01-11T03:59:18.899Z,-0.07
2019-01-11T04:01:52.184Z,-0.04
2019-01-11T04:04:25.176Z,-0.03
2019-01-11T04:06:59.119Z,-0.04
2019-01-11T04:09:32.210Z,-0.04
2019-01-11T04:12:05.348Z,-0.03
2019-01-11T04:14:38.902Z,-0.01
2019-01-11T04:17:12.265Z,0.01
2019-01-11T04:19:45.257Z,0.02
2019-01-11T04:22:26.075Z,0.05
2019-01-11T04:25:07.104Z,0.04
2019-01-11T04:27:42.055Z,0.05
2019-01-11T04:30:17.545Z,0.06
2019-01-11T04:32:50.672Z,0.06
2019-01-11T04:35:23.679Z,0.13
2019-01-11T04:37:57.217Z,0.11
2019-01-11T04:40:34.059Z,0.08
2019-01-11T04:43:05.851Z,0.13
2019-01-11T04:45:39.089Z,0.14
2019-01-11T04:48:11.757Z,0.13
2019-01-11T04:50:45.419Z,0.13
2019-01-11T04:53:19.127Z,0.16
2019-01-11T04:55:52.067Z,0.17
2019-01-11T04:58:25.081Z,0.21
2019-01-11T05:00:57.831Z,0.25
2019-01-11T05:03:32.000Z,0.27
2019-01-11T05:06:05.466Z,0.29
2019-01-11T05:08:39.181Z,0.30
2019-01-11T05:11:11.802Z,0.28
2019-01-11T05:13:49.950Z,0.29
2019-01-11T05:16:22.426Z,0.32
2019-01-11T05:18:56.308Z,0.30
2019-01-11T05:21:32.712Z,0.32
2019-01-11T05:24:05.415Z,0.32
2019-01-11T05:26:38.690Z,0.32
2019-01-11T05:29:12.338Z,0.35
2019-01-11T05:31:46.044Z,0.33
2019-01-11T05:34:19.426Z,0.35
2019-01-11T05:36:52.771Z,0.39
2019-01-11T05:39:26.062Z,0.37
2019-01-11T05:41:58.644Z,0.38
2019-01-11T05:44:32.173Z,0.38
2019-01-11T05:47:05.456Z,0.42
2019-01-11T05:49:38.250Z,0.39
2019-01-11T05:52:11.514Z,0.39
2019-01-11T05:54:44.837Z,0.45
2019-01-11T05:57:17.812Z,0.43
2019-01-11T05:59:52.446Z,0.46
2019-01-11T06:02:26.411Z,0.49
2019-01-11T06:05:03.545Z,0.51
2019-01-11T06:08:02.319Z,0.54
2019-01-11T06:10:36.032Z,0.53
2019-01-11T06:13:09.418Z,0.55
2019-01-11T06:15:42.946Z,0.55
2019-01-11T06:18:19.103Z,0.56
2019-01-11T06:20:52.066Z,0.57
2019-01-11T06:23:25.070Z,0.58
2019-01-11T06:25:58.278Z,0.59
2019-01-11T06:28:31.389Z,0.62
2019-01-11T06:31:04.510Z,0.58
2019-01-11T06:33:37.218Z,0.65
2019-01-11T06:36:10.788Z,0.64
2019-01-11T06:38:45.125Z,0.67
2019-01-11T06:41:18.734Z,0.61
2019-01-11T06:43:51.720Z,0.61
2019-01-11T06:46:25.936Z,0.63
2019-01-11T06:48:58.929Z,0.66
2019-01-11T06:51:31.655Z,0.66
2019-01-11T06:54:04.997Z,0.72
2019-01-11T06:56:38.113Z,0.69
2019-01-11T06:59:11.380Z,0.69
2019-01-11T07:01:45.006Z,0.71
2019-01-11T07:04:18.078Z,0.70
2019-01-11T07:06:50.991Z,0.75
2019-01-11T07:09:24.806Z,0.75
2019-01-11T07:11:58.595Z,0.77
2019-01-11T07:14:31.963Z,0.77
2019-01-11T07:17:05.744Z,0.79
2019-01-11T07:19:39.181Z,0.75
2019-01-11T07:22:12.478Z,0.74
2019-01-11T07:24:45.568Z,0.75
2019-01-11T07:27:19.465Z,0.81
2019-01-11T07:29:52.777Z,0.79
2019-01-11T07:32:25.770Z,0.79
2019-01-11T07:34:58.529Z,0.80
2019-01-11T07:37:31.501Z,0.78
2019-01-11T07:40:06.065Z,0.81
2019-01-11T07:42:38.460Z,0.81
2019-01-11T07:45:11.120Z,0.79
2019-01-11T07:47:43.444Z,0.85
2019-01-11T07:50:16.873Z,0.85
2019-01-11T07:52:49.894Z,0.90
2019-01-11T07:55:23.470Z,0.97
2019-01-11T07:57:56.418Z,0.99
2019-01-11T08:00:29.047Z,1.09
2019-01-11T08:03:02.011Z,1.09
2019-01-11T08:05:35.892Z,1.10
2019-01-11T08:08:08.894Z,1.15
2019-01-11T08:10:42.205Z,1.20
2019-01-11T08:13:15.285Z,1.21
2019-01-11T08:15:48.597Z,1.26
2019-01-11T08:18:21.802Z,1.31
2019-01-11T08:20:56.370Z,1.31
2019-01-11T08:23:30.081Z,1.30
2019-01-11T08:26:03.440Z,1.34
2019-01-11T08:28:36.530Z,1.34
2019-01-11T08:31:11.027Z,1.34
2019-01-11T08:33:44.935Z,1.42
2019-01-11T08:36:18.864Z,1.41
2019-01-11T08:38:53.865Z,1.39
2019-01-11T08:41:26.559Z,1.38
2019-01-11T08:43:59.860Z,1.43
2019-01-11T08:46:33.342Z,1.46
2019-01-11T08:49:07.293Z,1.48
2019-01-11T08:51:40.851Z,1.49
2019-01-11T08:54:13.755Z,1.53
2019-01-11T08:56:46.850Z,1.55
2019-01-11T08:59:20.493Z,1.55
2019-01-11T09:01:53.883Z,1.57
2019-01-11T09:04:28.063Z,1.60
2019-01-11T09:07:01.459Z,1.61
2019-01-11T09:09:34.821Z,1.61
2019-01-11T09:12:07.462Z,1.63
2019-01-11T09:14:51.342Z,1.65
2019-01-11T09:17:25.136Z,1.63
2019-01-11T09:19:59.282Z,1.68
2019-01-11T09:22:32.700Z,1.69
2019-01-11T09:25:06.216Z,1.70
2019-01-11T09:27:39.690Z,1.74
2019-01-11T09:30:13.275Z,1.82
2019-01-11T09:32:46.475Z,1.92
2019-01-11T09:35:19.569Z,1.97
2019-01-11T09:37:53.489Z,1.96
2019-01-11T09:40:26.554Z,1.97
2019-01-11T09:43:00.268Z,2.02
2019-01-11T09:45:32.980Z,2.06
2019-01-11T09:48:06.826Z,2.06
2019-01-11T09:50:39.367Z,2.06
2019-01-11T09:53:13.051Z,2.17
2019-01-11T09:55:46.736Z,2.08
2019-01-11T09:58:22.093Z,2.08
2019-01-11T10:00:59.127Z,2.16
2019-01-11T10:03:32.581Z,2.14
2019-01-11T10:06:06.059Z,2.11
2019-01-11T10:08:39.687Z,2.18
2019-01-11T10:11:15.473Z,2.26
2019-01-11T10:13:49.290Z,2.18
2019-01-11T10:16:23.784Z,2.23
2019-01-11T10:18:57.351Z,2.23
2019-01-11T10:21:30.754Z,2.23
2019-01-11T10:24:04.655Z,2.22
2019-01-11T10:26:37.337Z,2.20
2019-01-11T10:29:10.491Z,2.22
2019-01-11T10:31:44.510Z,2.25
2019-01-11T10:34:16.905Z,2.27
2019-01-11T10:36:50.616Z,2.29
2019-01-11T10:39:23.945Z,2.30
2019-01-11T10:41:59.081Z,2.32
2019-01-11T10:44:32.576Z,2.41
2019-01-11T10:47:05.782Z,2.45
2019-01-11T10:49:38.728Z,2.46
2019-01-11T10:52:12.199Z,2.44
2019-01-11T10:54:45.555Z,2.48
2019-01-11T10:57:18.529Z,2.51
2019-01-11T10:59:50.743Z,2.49
2019-01-11T11:02:24.190Z,2.54
2019-01-11T11:04:58.207Z,2.61
2019-01-11T11:07:31.509Z,2.65
2019-01-11T11:10:05.609Z,2.64
2019-01-11T11:12:38.798Z,2.73
2019-01-11T11:15:12.902Z,2.88
2019-01-11T11:17:46.043Z,2.93
2019-01-11T11:20:19.924Z,3.07
2019-01-11T11:22:54.709Z,3.12
2019-01-11T11:25:28.234Z,3.16
2019-01-11T11:28:01.936Z,3.21
2019-01-11T11:30:35.034Z,3.27
2019-01-11T11:33:08.902Z,3.32
2019-01-11T11:35:42.042Z,3.40
2019-01-11T11:38:15.109Z,3.33
2019-01-11T11:40:48.411Z,3.43
2019-01-11T11:43:21.711Z,3.46
2019-01-11T11:45:55.440Z,3.48
2019-01-11T11:48:29.031Z,3.49
2019-01-11T11:51:01.603Z,3.49
2019-01-11T11:53:34.956Z,3.52
2019-01-11T11:56:08.181Z,3.46
2019-01-11T11:58:42.206Z,3.50
2019-01-11T12:01:15.867Z,3.46
2019-01-11T12:03:48.782Z,3.46
2019-01-11T12:06:21.886Z,3.46
2019-01-11T12:08:55.412Z,3.46
2019-01-11T12:11:28.769Z,3.56
2019-01-11T12:14:01.361Z,3.62
2019-01-11T12:16:34.692Z,3.70
2019-01-11T12:19:09.285Z,3.73
2019-01-11T12:21:47.657Z,3.86
2019-01-11T12:24:18.202Z,3.79
2019-01-11T12:26:51.616Z,3.83
2019-01-11T12:29:24.580Z,3.89
2019-01-11T12:31:57.334Z,3.95
2019-01-11T12:34:31.281Z,4.07
2019-01-11T12:37:04.498Z,4.08
2019-01-11T12:39:37.477Z,4.13
2019-01-11T12:42:13.292Z,4.19
2019-01-11T12:44:45.685Z,4.27
2019-01-11T12:47:18.582Z,4.35
2019-01-11T12:49:51.798Z,4.36
2019-01-11T12:52:24.458Z,4.40
2019-01-11T12:54:56.712Z,4.57
2019-01-11T12:57:30.144Z,4.54
2019-01-11T13:00:04.759Z,4.58
2019-01-11T13:02:38.480Z,4.62
2019-01-11T13:05:13.879Z,4.67
2019-01-11T13:07:47.922Z,4.76
2019-01-11T13:10:22.558Z,4.75
2019-01-11T13:12:55.763Z,4.76
2019-01-11T13:15:29.339Z,4.70
2019-01-11T13:18:06.391Z,4.81
2019-01-11T13:20:40.467Z,4.94
2019-01-11T13:23:14.700Z,4.94
2019-01-11T13:25:48.115Z,5.03
2019-01-11T13:28:21.134Z,5.02
2019-01-11T13:30:53.830Z,5.02
2019-01-11T13:33:26.826Z,5.03
2019-01-11T13:36:00.813Z,5.07
2019-01-11T13:38:34.593Z,5.04
2019-01-11T13:41:07.326Z,5.10
2019-01-11T13:43:40.298Z,5.14
2019-01-11T13:46:13.080Z,5.17
2019-01-11T13:48:46.161Z,5.15
2019-01-11T13:51:20.009Z,5.18
2019-01-11T13:53:52.963Z,5.23
2019-01-11T13:56:26.676Z,5.31
2019-01-11T13:58:59.818Z,5.40
2019-01-11T14:01:32.957Z,5.53
2019-01-11T14:04:06.818Z,5.60
2019-01-11T14:06:40.266Z,5.64
2019-01-11T14:09:13.441Z,5.81
2019-01-11T14:11:47.060Z,5.81
2019-01-11T14:14:20.962Z,5.85
2019-01-11T14:16:54.467Z,5.88
2019-01-11T14:19:28.307Z,5.90
2019-01-11T14:22:01.667Z,6.04
2019-01-11T14:24:34.851Z,5.93
2019-01-11T14:27:07.670Z,5.96
2019-01-11T14:29:41.250Z,6.02
2019-01-11T14:32:16.179Z,6.04
2019-01-11T14:34:49.678Z,5.98
2019-01-11T14:37:22.662Z,5.99
2019-01-11T14:39:55.777Z,5.99
2019-01-11T14:42:28.937Z,6.02
2019-01-11T14:45:02.577Z,6.05
2019-01-11T14:47:36.253Z,6.03
2019-01-11T14:50:11.903Z,6.10
2019-01-11T14:52:48.502Z,6.03
2019-01-11T14:55:21.990Z,6.02
2019-01-11T14:57:55.578Z,6.05
2019-01-11T15:00:28.622Z,6.04
2019-01-11T15:03:01.407Z,5.97
2019-01-11T15:05:34.850Z,6.01
2019-01-11T15:08:08.335Z,6.04
2019-01-11T15:10:41.949Z,6.06
2019-01-11T15:13:15.085Z,6.01
2019-01-11T15:15:48.909Z,5.95
2019-01-11T15:18:21.585Z,5.92
2019-01-11T15:20:55.405Z,5.90
2019-01-11T15:23:28.005Z,5.86
2019-01-11T15:26:00.735Z,5.90
2019-01-11T15:28:33.827Z,5.88
2019-01-11T15:31:06.916Z,5.87
2019-01-11T15:33:40.790Z,5.88
2019-01-11T15:36:13.944Z,5.89
2019-01-11T15:38:46.657Z,5.89
2019-01-11T15:41:20.714Z,5.92
2019-01-11T15:43:56.080Z,5.89
2019-01-11T15:46:28.712Z,5.91
2019-01-11T15:49:02.630Z,5.84
2019-01-11T15:51:35.698Z,5.84
2019-01-11T15:54:07.910Z,5.82
2019-01-11T15:56:42.083Z,5.80
2019-01-11T15:59:14.784Z,5.84
2019-01-11T16:01:53.077Z,5.85
2019-01-11T16:04:26.481Z,5.87
2019-01-11T16:06:59.099Z,5.81
2019-01-11T16:10:06.535Z,5.86
2019-01-11T16:13:17.059Z,5.85
2019-01-11T16:16:18.985Z,5.82
2019-01-11T16:18:53.181Z,5.75
2019-01-11T16:21:27.920Z,5.73
2019-01-11T16:24:01.381Z,5.72
2019-01-11T16:26:38.526Z,5.69
2019-01-11T16:29:12.366Z,5.67
2019-01-11T16:31:45.000Z,5.63
2019-01-11T16:34:17.797Z,5.66
2019-01-11T16:36:51.291Z,5.72
2019-01-11T16:39:24.597Z,5.68
2019-01-11T16:41:58.091Z,5.69
2019-01-11T16:44:31.161Z,5.71
2019-01-11T16:47:04.662Z,5.72
2019-01-11T16:49:38.485Z,5.67
2019-01-11T16:52:15.376Z,5.59
2019-01-11T16:54:47.413Z,5.57
2019-01-11T16:57:20.125Z,5.49
2019-01-11T16:59:54.069Z,5.52
2019-01-11T17:02:27.081Z,5.51
2019-01-11T17:05:00.578Z,5.53
2019-01-11T17:07:34.498Z,5.47
2019-01-11T17:10:09.310Z,5.49
2019-01-11T17:12:42.742Z,5.47
2019-01-11T17:15:17.270Z,5.50
2019-01-11T17:17:50.857Z,5.54
2019-01-11T17:20:23.933Z,5.54
2019-01-11T17:22:57.199Z,5.51
2019-01-11T17:25:30.589Z,5.48
2019-01-11T17:28:03.596Z,5.51
2019-01-11T17:30:37.119Z,5.55
2019-01-11T17:33:11.062Z,5.52
2019-01-11T17:35:44.438Z,5.47
2019-01-11T17:38:18.158Z,5.46
2019-01-11T17:40:50.960Z,5.47
2019-01-11T17:43:24.775Z,5.50
2019-01-11T17:45:58.738Z,5.41
2019-01-11T17:48:32.189Z,5.38
2019-01-11T17:51:05.854Z,5.32
2019-01-11T17:53:38.988Z,5.32
2019-01-11T17:56:12.075Z,5.26
2019-01-11T17:58:45.197Z,5.18
2019-01-11T18:01:18.316Z,5.20
2019-01-11T18:03:51.789Z,5.22
2019-01-11T18:06:25.597Z,5.28
2019-01-11T18:08:59.523Z,5.25
2019-01-11T18:11:32.087Z,5.20
2019-01-11T18:14:05.297Z,5.22
2019-01-11T18:16:38.376Z,5.28
2019-01-11T18:19:11.873Z,5.21
2019-01-11T18:21:45.058Z,5.18
2019-01-11T18:24:18.298Z,5.16
2019-01-11T18:26:51.973Z,5.23
2019-01-11T18:29:25.590Z,5.26
2019-01-11T18:31:59.156Z,5.29
2019-01-11T18:34:32.223Z,5.24
2019-01-11T18:37:05.764Z,5.31
2019-01-11T18:39:39.247Z,5.30
2019-01-11T18:42:12.217Z,5.21
2019-01-11T18:44:46.201Z,5.18
2019-01-11T18:47:18.510Z,5.25
2019-01-11T18:49:52.017Z,5.27
2019-01-11T18:52:25.613Z,5.24
2019-01-11T18:54:58.441Z,5.23
2019-01-11T18:57:31.616Z,5.29
2019-01-11T19:00:08.275Z,5.35
2019-01-11T19:02:42.245Z,5.33
2019-01-11T19:05:16.998Z,5.30
2019-01-11T19:07:50.321Z,5.35
2019-01-11T19:10:23.710Z,5.35
2019-01-11T19:12:56.790Z,5.37
2019-01-11T19:15:30.091Z,5.38
2019-01-11T19:18:03.921Z,5.42
2019-01-11T19:20:39.286Z,5.35
2019-01-11T19:23:11.947Z,5.35
2019-01-11T19:25:45.209Z,5.39
2019-01-11T19:28:18.728Z,5.39
2019-01-11T19:30:52.633Z,5.41
2019-01-11T19:33:25.853Z,5.36
2019-01-11T19:35:59.717Z,5.37
2019-01-11T19:38:32.356Z,5.44
2019-01-11T19:41:07.719Z,5.40
2019-01-11T19:43:40.851Z,5.39
2019-01-11T19:46:14.739Z,5.38
2019-01-11T19:48:47.742Z,5.35
2019-01-11T19:51:21.248Z,5.37
2019-01-11T19:53:56.191Z,5.36
2019-01-11T19:56:30.055Z,5.35
2019-01-11T19:59:03.176Z,5.40
2019-01-11T20:01:36.643Z,5.36
2019-01-11T20:04:10.254Z,5.38
2019-01-11T20:06:43.807Z,5.38
2019-01-11T20:09:17.118Z,5.40
2019-01-11T20:11:50.359Z,5.34
2019-01-11T20:14:23.454Z,5.33
2019-01-11T20:16:57.075Z,5.31
2019-01-11T20:19:30.126Z,5.40
2019-01-11T20:22:03.189Z,5.36
2019-01-11T20:24:37.800Z,5.30
2019-01-11T20:27:11.135Z,5.30
2019-01-11T20:29:44.234Z,5.34
2019-01-11T20:32:17.899Z,5.33
2019-01-11T20:34:51.078Z,5.33
2019-01-11T20:37:30.301Z,5.34
2019-01-11T20:40:06.420Z,5.31
2019-01-11T20:42:39.544Z,5.32
2019-01-11T20:45:14.840Z,5.26
2019-01-11T20:47:47.971Z,5.29
2019-01-11T20:50:25.190Z,5.27
2019-01-11T20:52:57.426Z,5.35
2019-01-11T20:55:31.044Z,5.29
2019-01-11T20:58:05.183Z,5.29
2019-01-11T21:00:39.599Z,5.30
2019-01-11T21:03:14.998Z,5.32
2019-01-11T21:05:48.494Z,5.26
2019-01-11T21:08:22.012Z,5.24
2019-01-11T21:10:54.729Z,5.33
2019-01-11T21:13:27.952Z,5.35
2019-01-11T21:16:00.928Z,5.29
2019-01-11T21:18:34.022Z,5.27
2019-01-11T21:21:07.744Z,5.20
2019-01-11T21:23:41.154Z,5.22
2019-01-11T21:26:15.000Z,5.26
2019-01-11T21:28:48.164Z,5.25
2019-01-11T21:31:21.645Z,5.24
2019-01-11T21:33:54.809Z,5.32
2019-01-11T21:36:28.244Z,5.21
2019-01-11T21:39:01.700Z,5.12
2019-01-11T21:41:37.336Z,5.15
2019-01-11T21:44:10.769Z,5.27
2019-01-11T21:46:43.832Z,5.29
2019-01-11T21:49:17.062Z,5.27
2019-01-11T21:51:50.472Z,5.26
2019-01-11T21:54:24.136Z,5.29
2019-01-11T21:56:58.114Z,5.21
2019-01-11T21:59:31.658Z,5.28
2019-01-11T22:02:04.866Z,5.23
2019-01-11T22:04:38.348Z,5.16
2019-01-11T22:07:11.758Z,5.18
2019-01-11T22:09:45.414Z,5.20
2019-01-11T22:12:18.892Z,5.24
2019-01-11T22:14:52.454Z,5.23
2019-01-11T22:17:25.450Z,5.16
2019-01-11T22:19:59.343Z,5.33
2019-01-11T22:22:32.769Z,5.24
2019-01-11T22:25:06.247Z,5.25
2019-01-11T22:27:39.586Z,5.18
2019-01-11T22:30:18.087Z,5.18
2019-01-11T22:32:51.556Z,5.14
2019-01-11T22:35:24.479Z,5.24
2019-01-11T22:37:57.836Z,5.23
2019-01-11T22:40:31.634Z,5.27
2019-01-11T22:43:07.396Z,5.24
2019-01-11T22:45:41.612Z,5.24
2019-01-11T22:48:14.556Z,5.22
2019-01-11T22:50:48.949Z,5.19
2019-01-11T22:53:22.225Z,5.20
2019-01-11T22:55:55.431Z,5.14
2019-01-11T22:58:29.335Z,5.15
2019-01-11T23:01:43.073Z,5.16
2019-01-11T23:04:16.558Z,5.16
2019-01-11T23:07:06.030Z,5.18
2019-01-11T23:09:44.034Z,5.17
2019-01-11T23:12:53.302Z,5.24
2019-01-11T23:15:32.858Z,5.22
2019-01-11T23:18:10.930Z,5.25
2019-01-11T23:20:44.563Z,5.30
2019-01-11T23:23:17.213Z,5.22
2019-01-11T23:25:51.118Z,5.24
2019-01-11T23:28:24.729Z,5.21
2019-01-11T23:30:58.185Z,5.18
2019-01-11T23:33:31.690Z,5.16
2019-01-11T23:36:04.612Z,5.11
2019-01-11T23:38:37.686Z,5.16
2019-01-11T23:41:10.262Z,5.22
2019-01-11T23:43:43.377Z,5.21
2019-01-11T23:46:16.276Z,5.17
2019-01-11T23:48:49.321Z,5.19
2019-01-11T23:51:22.092Z,5.25
2019-01-11T23:53:54.733Z,5.19
2019-01-11T23:56:28.514Z,5.14
2019-01-11T23:59:02.398Z,5.17
